Station: Hughenden  

  Atmospheric Gas Attenuation - ITU Rec 676-11   ----------------- dB/100km -----------------
Date Time Temp RH % AH g/m3 Dew Point Wind Direction Speed kph Gust kph Barometer mB Rainfall Since 9am 24GHz 47GHz 76GHz 122GHz 134GHz 241GHz
08/05 12:30 25.8 39 9.39 10.8 24 30 1017.1 0 20.7 23.9 37.2 97.6 93.9 324.0
08/05 12:20 25.9 39 9.44 10.9 20 22 1017.3 0 20.8 24.0 37.3 98.0 94.3 325.7
08/05 12:10 26.7 39 9.87 11.6 24 30 1017.5 0 21.6 24.4 38.5 101.1 98.4 340.0
08/05 12:00 25.8 40 9.63 11.2 20 30 1017.5 0 21.2 24.3 38.1 99.9 96.7 333.9
08/05 11:50 25.5 40 9.47 10.9 24 28 1017.8 0 20.8 24.1 37.7 98.8 95.2 328.7
08/05 11:40 26 42 10.23 12.1 17 20 1018.1 0 22.4 25.1 40.1 105.5 103.5 357.9
08/05 11:30 25.2 41 9.54 11 24 33 1018.1 0 21.0 24.3 38.1 99.9 96.4 332.8
08/05 11:20 24.7 42 9.51 10.9 19 22 1018.4 0 21.0 24.4 38.2 100.2 96.7 333.7
08/05 11:10 25 42 9.67 11.2 28 35 1018.5 0 21.3 24.6 38.6 101.4 98.2 339.1
08/05 11:00 24.5 44 9.85 11.5 26 33 1018.6 0 21.7 25.0 39.5 103.8 101.0 348.8
08/05 10:50 24.9 44 10.07 11.8 20 22 1018.7 0 22.1 25.2 40.1 105.4 103.1 356.3
08/05 10:40 24 44 9.57 11 30 37 1018.8 0 21.1 24.7 38.8 101.7 98.3 339.3
08/05 10:30 23.6 44 9.36 10.6 26 33 1018.7 0 20.7 24.5 38.2 100.2 96.2 332.1
08/05 10:20 23.8 44 9.46 10.8 32 33 1018.9 0 20.9 24.6 38.5 100.9 97.2 335.5
08/05 10:10 23.3 45 9.41 10.7 28 32 1018.8 0 20.8 24.7 38.5 101.1 97.2 335.5
08/05 10:00 23.1 46 9.51 10.9 30 35 1018.8 0 21.0 24.9 39.0 102.3 98.7 340.5
08/05 09:50 22.9 47 9.6 11 24 26 1018.9 0 21.2 25.1 39.4 103.4 100.0 345.2
08/05 09:40 22.4 50 9.93 11.5 24 32 1019.1 0 22.0 25.7 40.9 107.4 104.7 361.6
08/05 09:30 22.3 51 10.07 11.7 26 37 1019.1 0 22.3 26.0 41.5 108.9 106.6 368.1
08/05 09:20 21.9 52 10.03 11.6 28 33 1019.3 0 22.2 26.0 41.5 109.1 106.6 368.3
08/05 09:10 21.4 54 10.12 11.7 26 30 1019.1 0 22.4 26.3 42.1 110.7 108.4 374.5
08/05 09:00 21.3 54 10.06 11.6 26 37 1019.1 0 22.3 26.2 41.9 110.2 107.8 372.3
08/05 08:50 20.9 56 10.2 11.8 26 30 1018.9 0 22.6 26.6 42.7 112.2 110.1 380.4
08/05 08:40 20.9 59 10.74 12.6 20 24 1018.9 0 23.8 27.4 44.8 117.8 117.1 404.6
08/05 08:30 20.3 61 10.73 12.5 22 26 1018.7 0 23.8 27.6 45.1 118.6 117.8 407.2
08/05 08:20 19.6 63 10.63 12.4 22 26 1018.7 0 23.6 27.6 45.1 118.5 117.6 406.2
08/05 08:10 19.3 66 10.95 12.8 19 24 1018.7 0 24.3 28.2 46.5 122.4 122.3 422.6
08/05 08:00 18.8 67 10.79 12.5 13 20 1018.5 0 24.0 28.1 46.2 121.5 120.9 417.8
08/05 07:50 18.4 71 11.17 13 15 17 1018.5 0 24.8 28.9 48.0 126.3 126.6 437.8
08/05 07:40 17.8 73 11.08 12.9 13 13 1018.5 0 24.7 28.9 48.0 126.2 126.4 436.9
08/05 07:30 17.2 77 11.28 13.1 9 13 1018.1 0 25.1 29.5 49.2 129.4 130.1 449.8
08/05 07:20 16.5 81 11.37 13.2 9 11 1018.2 0 25.4 29.9 50.0 131.6 132.6 458.3
08/05 07:10 15.9 83 11.24 13 11 13 1018.1 0 25.1 29.8 49.8 131.1 131.8 455.4
08/05 07:00 15.5 84 11.1 12.8 11 13 1017.9 0 24.8 29.7 49.5 130.2 130.5 450.8
08/05 06:50 15 85 10.9 12.5 13 13 1017.8 0 24.4 29.5 48.9 128.7 128.5 443.8
08/05 06:40 15.1 87 11.22 13 13 13 1017.6 0 25.1 30.1 50.2 132.2 132.8 459.0
08/05 06:30 14.8 86 10.89 12.5 11 13 1017.5 0 24.4 29.6 49.0 128.9 128.7 444.4
08/05 06:20 15.1 85 10.97 12.6 11 11 1017.5 0 24.6 29.6 49.1 129.3 129.3 446.6
08/05 06:10 15.5 84 11.1 12.8 9 9 1017.3 0 24.8 29.7 49.4 130.1 130.4 450.6
08/05 06:00 15.6 84 11.17 12.9 7 9 1016.9 0 25.0 29.8 49.6 130.7 131.2 453.3
08/05 05:50 15.7 84 11.24 13 7 7 1016.9 0 25.1 29.9 49.9 131.3 132.0 456.2
08/05 05:40 15.9 83 11.24 13 9 9 1016.8 0 25.1 29.8 49.7 131.0 131.7 455.0
08/05 05:30 16.1 81 11.1 12.8 9 9 1016.5 0 24.8 29.5 49.0 129.0 129.3 446.9
08/05 05:20 16.2 81 11.17 12.9 7 9 1016.6 0 24.9 29.6 49.2 129.6 130.1 449.7
08/05 05:10 16.5 81 11.37 13.2 9 9 1016.6 0 25.4 29.8 49.9 131.4 132.4 457.8
08/05 05:00 16.8 80 11.44 13.3 11 15 1016.4 0 25.5 29.8 50.0 131.7 132.9 459.3
08/05 04:50 16.7 81 11.51 13.4 11 13 1016.5 0 25.6 30.0 50.4 132.7 134.0 463.4
08/05 04:40 16.6 81 11.44 13.3 11 11 1016.3 0 25.5 29.9 50.1 132.0 133.2 460.5
08/05 04:30 16.5 81 11.37 13.2 9 11 1016.4 0 25.4 29.8 49.9 131.4 132.4 457.7
08/05 04:20 17 79 11.43 13.3 7 7 1016.2 0 25.5 29.7 49.8 131.2 132.4 457.6
08/05 04:10 16.7 81 11.51 13.4 0 0 1016.3 0 25.6 30.0 50.4 132.6 134.0 463.3
08/05 04:00 17 80 11.58 13.5 0 0 1016.1 0 25.8 30.0 50.5 132.9 134.4 464.9
08/05 03:50 17.1 79 11.5 13.4 0 0 1016.1 0 25.6 29.8 50.1 131.8 133.1 460.4
08/05 03:40 17.2 79 11.57 13.5 6 7 1016 0 25.7 29.9 50.3 132.4 133.9 463.2
08/05 03:30 17.1 78 11.35 13.2 6 9 1016 0 25.3 29.5 49.4 130.1 131.0 453.1
08/05 03:20 17.2 78 11.42 13.3 6 7 1016.1 0 25.4 29.6 49.7 130.7 131.9 455.9
08/05 03:10 17.2 78 11.42 13.3 6 7 1016.1 0 25.4 29.6 49.7 130.7 131.9 455.9
08/05 03:00 17.2 78 11.42 13.3 7 9 1016 0 25.4 29.6 49.6 130.7 131.9 455.9
08/05 02:50 17.4 77 11.41 13.3 7 9 1016 0 25.4 29.5 49.5 130.3 131.4 454.2
08/05 02:40 17.7 76 11.47 13.4 11 13 1015.9 0 25.5 29.5 49.5 130.4 131.7 455.3
08/05 02:30 17.8 75 11.38 13.3 11 15 1015.8 0 25.3 29.3 49.1 129.2 130.3 450.4
08/05 02:20 18.1 74 11.43 13.4 11 13 1015.9 0 25.4 29.3 49.1 129.3 130.4 451.1
08/05 02:10 18.2 73 11.35 13.3 13 15 1015.8 0 25.2 29.2 48.7 128.3 129.2 446.6
08/05 02:00 18.3 73 11.41 13.4 13 17 1015.9 0 25.3 29.2 48.9 128.8 129.8 448.9
08/05 01:50 18.2 73 11.35 13.3 13 15 1016.1 0 25.2 29.2 48.7 128.3 129.2 446.7
08/05 01:40 18.2 73 11.35 13.3 15 17 1015.9 0 25.2 29.2 48.7 128.3 129.2 446.7
08/05 01:30 18.2 72 11.19 13.1 13 17 1016 0 24.9 28.9 48.1 126.5 127.0 439.1
08/05 01:20 18.4 72 11.32 13.3 13 17 1016.1 0 25.1 29.1 48.5 127.6 128.4 444.1
08/05 01:10 18.2 72 11.19 13.1 13 15 1016.1 0 24.9 28.9 48.1 126.5 127.0 439.1
08/05 01:00 18.2 72 11.19 13.1 13 17 1016.1 0 24.9 28.9 48.1 126.5 127.0 439.1
08/05 00:50 18.1 73 11.28 13.2 13 17 1016.1 0 25.1 29.1 48.5 127.7 128.4 443.9
08/05 00:40 18 73 11.21 13.1 15 17 1016.2 0 24.9 29.0 48.3 127.1 127.6 441.2
08/05 00:30 17.8 74 11.23 13.1 13 15 1016.3 0 25.0 29.1 48.5 127.6 128.2 443.3
08/05 00:20 17.5 75 11.18 13 11 13 1016.5 0 24.9 29.1 48.5 127.6 128.1 442.7
08/05 00:10 17.6 74 11.1 12.9 9 9 1016.5 0 24.7 29.0 48.1 126.5 126.8 438.3
08/05 00:00 17.8 73 11.08 12.9 9 11 1016.5 0 24.7 28.9 47.9 126.0 126.2 436.2
07/05 23:50 18.2 72 11.19 13.1 9 11 1016.7 0 24.9 28.9 48.1 126.6 127.1 439.3
07/05 23:40 18.5 70 11.07 12.9 11 13 1016.7 0 24.6 28.6 47.4 124.8 125.0 431.9
07/05 23:30 18.8 69 11.11 13 11 15 1016.7 0 24.7 28.6 47.4 124.7 125.0 432.2
07/05 23:20 19 69 11.24 13.2 11 13 1016.8 0 24.9 28.8 47.8 125.9 126.4 437.2
07/05 23:10 19.2 68 11.21 13.2 13 15 1016.8 0 24.9 28.6 47.6 125.2 125.7 434.7
07/05 23:00 19.4 67 11.18 13.1 15 19 1016.7 0 24.8 28.5 47.3 124.6 125.0 432.1
07/05 22:50 19.7 66 11.21 13.2 17 17 1016.8 0 24.8 28.5 47.3 124.4 124.9 431.9
07/05 22:40 19.8 66 11.27 13.3 15 17 1016.8 0 24.9 28.5 47.5 124.9 125.5 434.2
07/05 22:30 20 66 11.41 13.5 17 20 1016.8 0 25.2 28.7 47.9 126.1 127.1 439.6
07/05 22:20 20.1 65 11.3 13.3 15 17 1016.8 0 25.0 28.5 47.4 124.8 125.5 433.9
07/05 22:10 20.4 65 11.5 13.6 15 15 1016.9 0 25.4 28.7 48.0 126.5 127.6 441.6
07/05 22:00 20.8 63 11.41 13.5 17 20 1016.9 0 25.2 28.5 47.4 124.8 125.8 435.2
07/05 21:50 20.9 63 11.47 13.6 19 20 1016.9 0 25.3 28.5 47.6 125.3 126.4 437.4
07/05 21:40 20.9 63 11.47 13.6 15 17 1016.9 0 25.3 28.5 47.6 125.3 126.4 437.4
07/05 21:30 21.2 62 11.49 13.6 15 20 1016.8 0 25.3 28.4 47.5 125.1 126.2 436.6
07/05 21:20 21.5 60 11.31 13.4 15 15 1016.9 0 24.9 28.1 46.6 122.7 123.4 426.7
07/05 21:10 21.8 59 11.32 13.4 19 20 1016.8 0 24.9 28.0 46.5 122.3 123.0 425.5
07/05 21:00 22 59 11.45 13.6 20 30 1016.7 0 25.2 28.1 46.9 123.4 124.4 430.3
07/05 20:50 22.2 57 11.19 13.5 24 30 1016.8 0 24.6 27.7 45.7 120.3 120.7 417.5
07/05 20:40 22.3 59 11.65 13.9 24 28 1016.7 0 25.6 28.4 47.5 125.0 126.5 437.8
07/05 20:30 22.7 58 11.72 14 22 32 1016.5 0 25.7 28.3 47.5 125.1 126.7 438.7
07/05 20:20 22.9 58 11.85 14.2 19 22 1016.3 0 26.0 28.5 47.9 126.1 128.1 443.4
07/05 20:10 23.2 57 11.85 14.2 20 24 1016.2 0 26.0 28.4 47.7 125.6 127.6 441.7
07/05 20:00 23.7 56 11.98 14.4 24 33 1016 0 26.2 28.4 47.9 126.2 128.4 444.7

Last Refresh: 08-May-2026 12:07:15

Bureau of Meteorology